Time;durP1;ratioP1;P1;durP2;ratioP2;P2;SDS_P1;SDS_P2;PMS_P1;PMS_P2;Temp;Humidity;BMP_temperature;BMP_pressure;BME280_temperature;BME280_humidity;BME280_pressure;Samples;Min_cycle;Max_cycle;Signal;HPM_P1;HPM_P2
2022/09/14 00:00:16;;;;;;;2.67;1.90;;;27.60;47.00;;;;;;4954341;28;20465;-79
2022/09/14 00:03:08;;;;;;;2.67;2.47;;;27.60;47.00;;;;;;4964103;29;20428;-79
2022/09/14 00:05:43;;;;;;;2.00;1.90;;;27.60;47.10;;;;;;4969608;28;20425;-79
2022/09/14 00:08:14;;;;;;;2.77;2.37;;;27.60;47.10;;;;;;4958483;29;20467;-79
2022/09/14 00:10:47;;;;;;;2.43;2.00;;;27.60;47.10;;;;;;4960530;28;20543;-79
2022/09/14 00:13:20;;;;;;;2.17;1.93;;;27.50;47.10;;;;;;4953634;29;20476;-79
2022/09/14 00:15:54;;;;;;;1.83;1.73;;;27.50;47.00;;;;;;4960037;28;20437;-78
2022/09/14 00:18:29;;;;;;;2.80;1.90;;;27.50;47.10;;;;;;4955922;28;20928;-79
2022/09/14 00:21:10;;;;;;;2.20;2.10;;;27.50;47.10;;;;;;4956525;28;20467;-79
2022/09/14 00:23:49;;;;;;;1.90;1.80;;;27.50;47.10;;;;;;4950792;28;20429;-79
2022/09/14 00:26:25;;;;;;;2.03;1.93;;;27.50;47.20;;;;;;4942617;29;20448;-79
2022/09/14 00:31:47;;;;;;;2.20;2.10;;;27.40;47.10;;;;;;4980681;28;20458;-80
2022/09/14 00:34:30;;;;;;;2.47;2.27;;;27.40;47.20;;;;;;4976746;28;20440;-80
2022/09/14 00:37:07;;;;;;;3.53;2.20;;;27.50;47.10;;;;;;4983626;28;20504;-79
2022/09/14 00:39:40;;;;;;;2.30;2.10;;;27.40;47.10;;;;;;4980283;28;20445;-80
2022/09/14 00:42:18;;;;;;;2.33;2.20;;;27.40;47.20;;;;;;4975286;28;20427;-79
2022/09/14 00:45:10;;;;;;;2.70;2.50;;;27.30;47.20;;;;;;4984671;28;20427;-80
2022/09/14 00:47:45;;;;;;;2.40;2.30;;;27.40;47.30;;;;;;4971260;28;20431;-80
2022/09/14 00:50:21;;;;;;;2.10;2.00;;;27.40;47.40;;;;;;4983796;28;20481;-80
2022/09/14 00:53:04;;;;;;;2.97;2.70;;;27.40;47.40;;;;;;4968679;28;20449;-79
2022/09/14 00:55:47;;;;;;;2.40;2.20;;;27.30;47.20;;;;;;4983617;28;20446;-79
2022/09/14 00:58:23;;;;;;;2.30;2.10;;;27.30;47.30;;;;;;4966287;28;20522;-79
2022/09/14 01:01:01;;;;;;;2.77;2.60;;;27.30;47.30;;;;;;4984124;28;20450;-79
2022/09/14 01:03:37;;;;;;;2.23;2.13;;;27.30;47.20;;;;;;4975569;28;20542;-81
2022/09/14 01:06:21;;;;;;;2.90;2.67;;;27.30;47.30;;;;;;4961679;28;20995;-81
2022/09/14 01:09:14;;;;;;;2.83;2.53;;;27.30;47.20;;;;;;4971725;28;20479;-81
2022/09/14 01:12:10;;;;;;;2.17;2.07;;;27.30;47.20;;;;;;4977042;28;20477;-81
2022/09/14 01:14:49;;;;;;;2.77;2.60;;;27.30;47.20;;;;;;4974323;28;20824;-81
2022/09/14 01:17:25;;;;;;;2.57;2.37;;;27.20;47.30;;;;;;4977809;28;20453;-81
2022/09/14 01:20:15;;;;;;;2.30;2.20;;;27.20;47.20;;;;;;4979817;28;20444;-81
2022/09/14 01:22:55;;;;;;;3.27;2.97;;;27.20;47.30;;;;;;4965845;28;20429;-80
2022/09/14 01:25:38;;;;;;;2.20;2.10;;;27.20;47.40;;;;;;4965358;28;20492;-80
2022/09/14 01:28:13;;;;;;;3.47;2.40;;;27.20;47.40;;;;;;4971239;28;20421;-80
2022/09/14 01:30:45;;;;;;;2.53;2.33;;;27.20;47.20;;;;;;4964065;28;20454;-82
2022/09/14 01:33:19;;;;;;;3.20;2.90;;;27.20;47.30;;;;;;4968621;28;20452;-79
2022/09/14 01:35:49;;;;;;;2.40;2.20;;;27.20;47.40;;;;;;4983182;28;20457;-80
2022/09/14 01:38:19;;;;;;;2.63;2.43;;;27.20;47.30;;;;;;4972874;28;20430;-80
2022/09/14 01:40:52;;;;;;;3.03;2.27;;;27.20;47.30;;;;;;4981393;28;20446;-81
2022/09/14 01:43:34;;;;;;;2.77;2.50;;;27.10;47.20;;;;;;4976553;28;20441;-81
2022/09/14 01:46:12;;;;;;;2.73;2.53;;;27.10;47.20;;;;;;4968724;28;20454;-81
2022/09/14 01:48:51;;;;;;;2.50;2.30;;;27.10;47.40;;;;;;4981172;28;20444;-81
2022/09/14 01:51:31;;;;;;;2.30;2.20;;;27.10;47.30;;;;;;4972698;28;20836;-81
2022/09/14 01:54:05;;;;;;;2.47;2.27;;;27.10;47.40;;;;;;4983475;28;20473;-82
2022/09/14 01:56:48;;;;;;;2.10;2.00;;;27.10;47.30;;;;;;4964479;28;20459;-81
2022/09/14 01:59:21;;;;;;;2.40;2.20;;;27.00;47.30;;;;;;4978168;28;20441;-81
2022/09/14 02:01:57;;;;;;;2.00;1.90;;;27.10;47.40;;;;;;4966272;28;20462;-81
2022/09/14 02:04:34;;;;;;;2.30;2.20;;;27.00;47.40;;;;;;4982291;28;20421;-81
2022/09/14 02:07:05;;;;;;;2.40;2.13;;;27.00;47.20;;;;;;4972845;28;20545;-82
2022/09/14 02:09:36;;;;;;;2.63;2.40;;;27.00;47.20;;;;;;4976781;28;20472;-82
2022/09/14 02:12:18;;;;;;;3.77;2.30;;;27.00;47.30;;;;;;4966517;28;20445;-82
2022/09/14 02:15:08;;;;;;;3.47;2.27;;;27.00;47.20;;;;;;4974586;28;20871;-80
2022/09/14 02:18:00;;;;;;;2.60;2.40;;;27.00;47.30;;;;;;4973787;28;20446;-81
2022/09/14 02:24:21;;;;;;;2.17;2.03;;;27.00;47.20;;;;;;4873827;29;20453;-80
2022/09/14 02:30:29;;;;;;;2.87;2.57;;;27.00;47.50;;;;;;4888351;29;20492;-81
2022/09/14 02:37:03;;;;;;;2.43;2.20;;;26.90;47.50;;;;;;4874318;29;20451;-82
2022/09/14 02:40:01;;;;;;;2.40;2.30;;;26.90;47.40;;;;;;4889408;29;20444;-82
2022/09/14 02:43:22;;;;;;;2.67;2.53;;;26.90;47.40;;;;;;4977451;28;20436;-81
2022/09/14 02:49:28;;;;;;;;;;;;;;;;;;;;;
2022/09/14 02:52:20;;;;;;;2.80;2.70;;;26.90;47.40;;;;;;4981610;28;20454;-82
2022/09/14 02:55:20;;;;;;;2.67;2.47;;;26.90;47.40;;;;;;4975951;28;20425;-82
2022/09/14 02:58:19;;;;;;;2.13;2.00;;;26.90;47.50;;;;;;4982353;28;20461;-82
2022/09/14 03:01:25;;;;;;;2.63;2.43;;;26.90;47.40;;;;;;4972982;28;20444;-82
2022/09/14 03:04:13;;;;;;;2.77;2.57;;;26.90;47.50;;;;;;4979533;28;20455;-82
2022/09/14 03:10:06;;;;;;;2.40;2.20;;;26.90;47.40;;;;;;4978893;28;20553;-82
2022/09/14 03:12:56;;;;;;;2.43;2.33;;;26.90;47.40;;;;;;4967764;28;20549;-82
2022/09/14 03:15:39;;;;;;;2.30;2.20;;;26.80;47.40;;;;;;4964398;28;20532;-81
2022/09/14 03:18:15;;;;;;;2.10;2.00;;;26.90;48.00;;;;;;4957182;28;20454;-81
2022/09/14 03:21:00;;;;;;;3.53;2.33;;;26.90;47.50;;;;;;4975416;28;20446;-81
2022/09/14 03:23:56;;;;;;;2.77;2.43;;;26.80;47.40;;;;;;4964532;28;20439;-82
2022/09/14 03:26:46;;;;;;;2.93;2.30;;;26.80;47.50;;;;;;4974735;28;20458;-81
2022/09/14 03:29:46;;;;;;;2.50;2.40;;;26.80;47.40;;;;;;4950107;28;20535;-82
2022/09/14 03:35:22;;;;;;;2.03;1.93;;;26.80;47.50;;;;;;4960928;28;20459;-81
2022/09/14 03:38:07;;;;;;;2.40;2.20;;;26.70;47.40;;;;;;4955436;28;20429;-81
2022/09/14 03:40:58;;;;;;;2.20;2.10;;;26.80;47.50;;;;;;4961595;28;20520;-82
2022/09/14 03:43:37;;;;;;;2.43;2.23;;;26.70;47.50;;;;;;4974245;28;20428;-81
2022/09/14 03:46:17;;;;;;;2.43;2.33;;;26.70;47.40;;;;;;4959655;28;20463;-81
2022/09/14 03:49:00;;;;;;;2.20;2.10;;;26.70;47.40;;;;;;4954332;28;20554;-81
2022/09/14 03:51:43;;;;;;;2.30;2.10;;;26.70;47.50;;;;;;4953076;28;20952;-81
2022/09/14 03:57:33;;;;;;;2.60;2.40;;;26.70;47.50;;;;;;4963735;28;20436;-82
2022/09/14 04:00:30;;;;;;;3.07;2.20;;;26.70;47.50;;;;;;4959657;28;20967;-82
2022/09/14 04:03:30;;;;;;;4.90;1.80;;;26.70;47.60;;;;;;4970845;28;20429;-83
2022/09/14 04:06:26;;;;;;;2.13;2.03;;;26.70;47.50;;;;;;4968361;28;20429;-82
2022/09/14 04:09:11;;;;;;;2.00;1.87;;;26.70;47.40;;;;;;4965796;28;20483;-83
2022/09/14 04:12:00;;;;;;;2.20;2.10;;;26.70;47.50;;;;;;4984291;28;20424;-80
2022/09/14 04:14:36;;;;;;;2.20;2.03;;;26.70;47.40;;;;;;4967896;28;20481;-82
2022/09/14 04:17:45;;;;;;;2.07;1.93;;;26.60;47.40;;;;;;4937896;29;20421;-82
2022/09/14 04:20:24;;;;;;;2.00;1.90;;;26.70;47.40;;;;;;4950493;28;20486;-82
2022/09/14 04:25:54;;;;;;;1.90;1.80;;;26.70;47.50;;;;;;4965414;28;20473;-82
2022/09/14 04:28:28;;;;;;;2.00;1.87;;;26.70;47.50;;;;;;4984486;28;20427;-82
2022/09/14 04:31:04;;;;;;;5.33;1.90;;;26.60;47.40;;;;;;4979338;28;20473;-82
2022/09/14 04:33:50;;;;;;;2.27;1.83;;;26.70;47.40;;;;;;4969635;28;20473;-82
2022/09/14 04:36:40;;;;;;;2.20;2.10;;;26.60;47.40;;;;;;4958361;29;20498;-82
2022/09/14 04:39:16;;;;;;;2.00;1.90;;;26.60;47.30;;;;;;4975057;28;20474;-81
2022/09/14 04:41:54;;;;;;;2.60;1.70;;;26.60;47.30;;;;;;4984076;28;20448;-81
2022/09/14 04:44:32;;;;;;;1.80;1.70;;;26.60;47.40;;;;;;4968410;28;20449;-81
2022/09/14 04:47:16;;;;;;;1.83;1.73;;;26.60;47.30;;;;;;4955736;29;20461;-81
2022/09/14 04:49:56;;;;;;;1.80;1.67;;;26.60;47.30;;;;;;4962429;28;20468;-81
2022/09/14 04:52:51;;;;;;;2.20;1.97;;;26.60;47.40;;;;;;4984297;28;20465;-81
2022/09/14 04:55:37;;;;;;;1.60;1.50;;;26.60;47.40;;;;;;4969424;28;20433;-81
2022/09/14 04:58:32;;;;;;;1.87;1.77;;;26.60;47.30;;;;;;4970413;28;20513;-79
2022/09/14 05:01:20;;;;;;;1.63;1.53;;;26.60;47.50;;;;;;4972366;28;20512;-80
2022/09/14 05:04:13;;;;;;;1.83;1.73;;;26.60;47.40;;;;;;4974401;28;20530;-81
2022/09/14 05:06:55;;;;;;;1.80;1.70;;;26.50;47.40;;;;;;4964349;28;20512;-80
2022/09/14 05:09:43;;;;;;;1.73;1.63;;;26.60;47.50;;;;;;4983809;28;20469;-81
2022/09/14 05:12:22;;;;;;;1.60;1.50;;;26.60;47.40;;;;;;4971795;28;20428;-81
2022/09/14 05:15:13;;;;;;;1.57;1.50;;;26.50;47.40;;;;;;4981701;28;20451;-81
2022/09/14 05:18:04;;;;;;;1.60;1.50;;;26.60;47.40;;;;;;4968907;28;20491;-82
2022/09/14 05:26:52;;;;;;;1.83;1.73;;;26.50;47.40;;;;;;4957150;29;20417;-82
2022/09/14 05:29:45;;;;;;;1.60;1.50;;;26.50;47.20;;;;;;4950856;29;20450;-81
2022/09/14 05:32:36;;;;;;;1.43;1.33;;;26.50;47.30;;;;;;4960447;29;20413;-80
2022/09/14 05:35:28;;;;;;;2.47;1.47;;;26.50;47.40;;;;;;4963675;29;20456;-81
2022/09/14 05:38:13;;;;;;;3.53;1.57;;;26.50;47.30;;;;;;4957143;29;20460;-82
2022/09/14 05:40:59;;;;;;;1.80;1.70;;;26.50;47.40;;;;;;4942699;29;20434;-82
2022/09/14 05:43:47;;;;;;;2.60;1.50;;;26.50;47.30;;;;;;4948404;29;20510;-81
2022/09/14 05:49:13;;;;;;;1.50;1.40;;;26.50;47.30;;;;;;4945528;28;20629;-82
2022/09/14 05:52:05;;;;;;;2.03;1.60;;;26.50;47.30;;;;;;4952222;29;20458;-82
2022/09/14 05:54:44;;;;;;;1.50;1.40;;;26.50;47.20;;;;;;4916647;29;20478;-81
2022/09/14 05:57:38;;;;;;;1.60;1.50;;;26.50;47.40;;;;;;4931086;29;20522;-81
2022/09/14 06:00:15;;;;;;;1.90;1.67;;;26.50;47.30;;;;;;4946619;29;20459;-82
2022/09/14 06:02:52;;;;;;;1.70;1.57;;;26.50;47.30;;;;;;4947638;29;20431;-82
2022/09/14 06:05:28;;;;;;;1.47;1.37;;;26.50;47.30;;;;;;4977535;28;20416;-83
2022/09/14 06:08:04;;;;;;;1.70;1.60;;;26.50;47.20;;;;;;4983000;28;20452;-83
2022/09/14 06:10:39;;;;;;;1.83;1.60;;;26.50;47.20;;;;;;4967539;28;20499;-81
2022/09/14 06:13:17;;;;;;;1.53;1.43;;;26.50;47.20;;;;;;4944388;29;20497;-82
2022/09/14 06:15:51;;;;;;;1.77;1.30;;;26.60;47.30;;;;;;4965414;28;20462;-82
2022/09/14 06:18:24;;;;;;;1.70;1.33;;;26.50;47.20;;;;;;4983019;28;20445;-82
2022/09/14 06:21:05;;;;;;;2.40;1.50;;;26.50;47.20;;;;;;4965590;28;20446;-81
2022/09/14 06:23:46;;;;;;;1.70;1.60;;;26.60;47.20;;;;;;4970779;28;20448;-81
2022/09/14 06:26:34;;;;;;;1.50;1.40;;;26.50;47.10;;;;;;4946618;29;20454;-82
2022/09/14 06:29:17;;;;;;;1.40;1.30;;;26.60;47.30;;;;;;4966716;28;20433;-82
2022/09/14 06:32:09;;;;;;;1.80;1.70;;;26.60;47.10;;;;;;4977498;28;20468;-81
2022/09/14 06:34:56;;;;;;;1.83;1.50;;;26.60;47.20;;;;;;4969414;28;20481;-82
2022/09/14 06:37:34;;;;;;;1.33;1.23;;;26.60;47.10;;;;;;4961077;28;20477;-82
2022/09/14 06:40:21;;;;;;;1.33;1.23;;;26.60;47.10;;;;;;4970561;28;20474;-82
2022/09/14 06:43:01;;;;;;;2.00;1.30;;;26.60;47.00;;;;;;4962504;28;20443;-82
2022/09/14 06:45:41;;;;;;;1.50;1.40;;;26.70;47.00;;;;;;4968048;28;20533;-82
2022/09/14 06:48:14;;;;;;;1.87;1.60;;;26.70;46.90;;;;;;4946706;29;20434;-81
2022/09/14 06:50:58;;;;;;;1.33;1.23;;;26.60;46.90;;;;;;4965852;28;20560;-82
2022/09/14 06:53:53;;;;;;;1.43;1.33;;;26.70;46.90;;;;;;4981743;28;20466;-82
2022/09/14 06:56:44;;;;;;;1.37;1.37;;;26.70;46.90;;;;;;4968627;28;20473;-82
2022/09/14 06:59:14;;;;;;;1.33;1.20;;;26.70;46.70;;;;;;4943224;29;20521;-82
2022/09/14 07:01:45;;;;;;;1.60;1.50;;;26.70;46.80;;;;;;4952715;28;20454;-82
2022/09/14 07:04:13;;;;;;;1.63;1.30;;;26.70;46.90;;;;;;4967934;28;20422;-82
2022/09/14 07:06:51;;;;;;;1.73;1.40;;;26.70;46.60;;;;;;4957561;28;20506;-81
2022/09/14 07:09:28;;;;;;;1.30;1.20;;;26.70;46.70;;;;;;4966100;28;20461;-82
2022/09/14 07:14:46;;;;;;;1.37;1.27;;;26.70;46.80;;;;;;4975965;28;20449;-82
2022/09/14 07:17:19;;;;;;;1.47;1.40;;;26.70;46.70;;;;;;4960035;28;20454;-82
2022/09/14 07:19:52;;;;;;;1.50;1.40;;;26.70;46.70;;;;;;4966828;28;20444;-82
2022/09/14 07:22:34;;;;;;;2.10;1.30;;;26.70;46.60;;;;;;4981736;28;20420;-82
2022/09/14 07:25:08;;;;;;;1.40;1.30;;;26.70;46.70;;;;;;4970493;28;20424;-82
2022/09/14 07:27:52;;;;;;;1.47;1.37;;;26.80;46.70;;;;;;4969476;28;20487;-80
2022/09/14 07:30:23;;;;;;;2.00;1.40;;;26.80;46.50;;;;;;4951942;28;20535;-81
2022/09/14 07:33:09;;;;;;;1.60;1.50;;;26.90;46.70;;;;;;4959848;28;20425;-80
2022/09/14 07:35:49;;;;;;;2.30;1.50;;;26.90;46.40;;;;;;4960516;28;20446;-82
2022/09/14 07:38:30;;;;;;;1.43;1.33;;;26.90;46.40;;;;;;4977498;28;20445;-80
2022/09/14 07:41:24;;;;;;;2.10;1.40;;;26.90;46.60;;;;;;4974756;28;20461;-80
2022/09/14 07:44:01;;;;;;;1.60;1.40;;;27.00;46.30;;;;;;4961780;28;20435;-80
2022/09/14 07:46:55;;;;;;;1.47;1.37;;;27.00;46.30;;;;;;4951217;29;20413;-82
2022/09/14 07:49:47;;;;;;;2.50;1.30;;;27.00;46.10;;;;;;4955040;28;20436;-83
2022/09/14 07:52:21;;;;;;;1.60;1.50;;;27.00;46.20;;;;;;4956451;28;20458;-81
2022/09/14 07:54:54;;;;;;;4.60;1.30;;;27.10;46.00;;;;;;4961623;28;20480;-83
2022/09/14 07:57:39;;;;;;;1.60;1.50;;;27.20;46.10;;;;;;4960594;28;20446;-83
2022/09/14 08:00:39;;;;;;;2.93;1.53;;;27.20;45.90;;;;;;4953149;29;20456;-83
2022/09/14 08:03:29;;;;;;;1.97;1.20;;;27.30;46.00;;;;;;4950756;28;20488;-84
2022/09/14 08:06:13;;;;;;;3.37;1.30;;;27.40;45.90;;;;;;4954410;28;20430;-83
2022/09/14 08:09:26;;;;;;;3.53;1.30;;;27.40;45.80;;;;;;4951943;28;20442;-82
2022/09/14 08:12:15;;;;;;;3.27;1.40;;;27.50;45.80;;;;;;4953299;29;20439;-83
2022/09/14 08:15:12;;;;;;;1.73;1.43;;;27.40;45.60;;;;;;4942125;29;20461;-83
2022/09/14 08:18:01;;;;;;;2.37;1.70;;;27.50;45.70;;;;;;4940140;29;20426;-83
2022/09/14 08:21:02;;;;;;;1.20;1.07;;;27.60;45.50;;;;;;4968862;28;20460;-83
2022/09/14 08:23:42;;;;;;;1.43;1.30;;;27.60;45.50;;;;;;4962376;29;20458;-83
2022/09/14 08:26:32;;;;;;;1.67;1.57;;;27.70;45.40;;;;;;4974549;29;20455;-83
2022/09/14 08:29:33;;;;;;;1.30;1.20;;;27.80;45.10;;;;;;4973262;28;20461;-82
2022/09/14 08:32:35;;;;;;;1.77;1.67;;;27.90;45.00;;;;;;4957771;28;20490;-83
2022/09/14 08:35:25;;;;;;;1.30;1.20;;;27.90;45.00;;;;;;4957462;28;20550;-81
2022/09/14 08:38:21;;;;;;;1.20;1.10;;;28.00;45.30;;;;;;4960174;28;20483;-83
2022/09/14 08:40:59;;;;;;;1.40;1.30;;;28.10;44.90;;;;;;4953543;28;20424;-84
2022/09/14 08:43:27;;;;;;;1.40;1.30;;;28.20;45.00;;;;;;4947501;28;20445;-82
2022/09/14 08:45:58;;;;;;;1.93;1.40;;;28.20;44.50;;;;;;4951614;28;20416;-82
2022/09/14 08:48:29;;;;;;;1.30;1.20;;;28.20;44.40;;;;;;4948479;29;20419;-79
2022/09/14 08:50:57;;;;;;;1.57;1.47;;;28.10;44.60;;;;;;4945826;29;20425;-79
2022/09/14 08:53:25;;;;;;;1.13;1.13;;;28.10;44.70;;;;;;4953777;28;20426;-78
2022/09/14 08:55:54;;;;;;;1.37;1.27;;;28.10;44.80;;;;;;4951790;28;20484;-79
2022/09/14 08:58:31;;;;;;;1.50;1.40;;;28.10;44.80;;;;;;4953515;28;20458;-78
2022/09/14 09:01:02;;;;;;;8.13;1.57;;;28.10;45.10;;;;;;4952954;28;20458;-79
2022/09/14 09:03:43;;;;;;;4.63;1.60;;;28.30;44.90;;;;;;4950953;28;20461;-78
2022/09/14 09:06:14;;;;;;;1.57;1.47;;;28.40;44.60;;;;;;4952347;29;20437;-77
2022/09/14 09:08:49;;;;;;;1.47;1.37;;;28.40;44.40;;;;;;4945421;28;20458;-79
2022/09/14 09:11:18;;;;;;;1.53;1.43;;;28.40;44.40;;;;;;4950164;29;20488;-79
2022/09/14 09:13:46;;;;;;;1.40;1.27;;;28.40;44.40;;;;;;4951422;29;20430;-80
2022/09/14 09:16:19;;;;;;;1.50;1.40;;;28.30;44.40;;;;;;4961168;28;20539;-80
2022/09/14 09:18:52;;;;;;;1.50;1.40;;;28.30;44.50;;;;;;4976789;28;20469;-75
2022/09/14 09:21:37;;;;;;;1.33;1.23;;;28.30;44.40;;;;;;4975962;28;20546;-79
2022/09/14 09:24:22;;;;;;;1.27;1.20;;;28.30;44.50;;;;;;4976575;28;20470;-80
2022/09/14 09:26:51;;;;;;;1.73;1.20;;;28.30;44.60;;;;;;4954318;29;20917;-80
2022/09/14 09:29:30;;;;;;;2.17;1.40;;;28.40;44.70;;;;;;4959972;28;20505;-80
2022/09/14 09:31:58;;;;;;;1.90;1.77;;;28.50;44.50;;;;;;4969596;28;20453;-81
2022/09/14 09:34:32;;;;;;;1.40;1.30;;;28.60;44.60;;;;;;4969562;28;20475;-80
2022/09/14 09:37:02;;;;;;;1.63;1.53;;;28.60;44.40;;;;;;4963668;28;20475;-80
2022/09/14 09:39:36;;;;;;;2.50;1.40;;;28.60;44.20;;;;;;4960946;28;20450;-78
2022/09/14 09:42:07;;;;;;;1.47;1.37;;;28.60;44.10;;;;;;4948749;28;20477;-82
2022/09/14 09:45:02;;;;;;;3.30;1.70;;;28.60;44.30;;;;;;4952895;29;20430;-82
2022/09/14 09:47:35;;;;;;;2.47;1.77;;;28.60;44.40;;;;;;4961179;28;20451;-82
2022/09/14 09:50:20;;;;;;;2.30;2.10;;;28.60;44.40;;;;;;4957225;28;20465;-82
2022/09/14 09:52:49;;;;;;;9.10;2.70;;;28.60;44.50;;;;;;4954916;28;20450;-82
2022/09/14 09:55:19;;;;;;;3.40;2.10;;;28.70;44.90;;;;;;4953993;28;20466;-81
2022/09/14 09:57:47;;;;;;;5.60;2.30;;;28.70;45.40;;;;;;4956952;28;20441;-80
2022/09/14 10:00:20;;;;;;;7.33;2.70;;;28.70;45.20;;;;;;4953410;28;20460;-78
2022/09/14 10:02:48;;;;;;;7.13;2.67;;;28.70;45.20;;;;;;4957073;28;20470;-80
2022/09/14 10:05:22;;;;;;;9.90;2.70;;;28.70;45.50;;;;;;4964857;28;20440;-80
2022/09/14 10:07:53;;;;;;;8.80;2.87;;;28.70;45.40;;;;;;4962459;28;20435;-78
2022/09/14 10:10:25;;;;;;;5.53;2.50;;;28.70;45.40;;;;;;4958831;28;20477;-80
2022/09/14 10:12:54;;;;;;;7.80;2.33;;;28.60;45.20;;;;;;4957681;28;20431;-79
2022/09/14 10:15:24;;;;;;;3.03;2.03;;;28.60;44.80;;;;;;4951167;29;20426;-80
2022/09/14 10:18:10;;;;;;;6.47;2.10;;;28.60;44.70;;;;;;4953344;28;20536;-79
2022/09/14 10:20:41;;;;;;;13.93;2.37;;;28.60;44.50;;;;;;4955300;28;20461;-79
2022/09/14 10:23:26;;;;;;;5.80;2.00;;;28.60;44.40;;;;;;4951186;29;20429;-80
2022/09/14 10:26:18;;;;;;;5.67;1.90;;;28.60;43.90;;;;;;4955710;28;20502;-76
2022/09/14 10:28:47;;;;;;;3.40;1.63;;;28.60;43.60;;;;;;4956317;28;20479;-79
2022/09/14 10:31:23;;;;;;;7.57;1.87;;;28.60;43.70;;;;;;4955828;28;20445;-79
2022/09/14 10:33:57;;;;;;;3.60;1.63;;;28.70;43.40;;;;;;4957401;28;20443;-78
2022/09/14 10:36:29;;;;;;;5.03;1.47;;;28.70;42.80;;;;;;4957017;28;20562;-77
2022/09/14 10:38:58;;;;;;;4.03;1.47;;;28.70;42.20;;;;;;4958171;28;20445;-78
2022/09/14 10:41:30;;;;;;;2.40;1.30;;;28.70;42.90;;;;;;4969832;28;20466;-78
2022/09/14 10:44:28;;;;;;;2.70;1.63;;;28.80;42.10;;;;;;4973568;28;20460;-77
2022/09/14 10:47:05;;;;;;;2.30;1.27;;;28.90;41.90;;;;;;4924885;28;20451;-77
2022/09/14 10:49:40;;;;;;;3.00;1.47;;;28.90;41.60;;;;;;4954552;28;20481;-76
2022/09/14 10:52:13;;;;;;;2.40;1.30;;;29.00;41.80;;;;;;4954493;28;20477;-77
2022/09/14 10:55:03;;;;;;;3.87;1.20;;;29.00;41.60;;;;;;4955693;28;20459;-77
2022/09/14 10:57:39;;;;;;;4.13;1.57;;;29.00;41.20;;;;;;4948745;29;20441;-77
2022/09/14 11:00:11;;;;;;;3.20;1.60;;;29.10;40.90;;;;;;4946002;29;20505;-77
2022/09/14 11:02:49;;;;;;;3.73;1.30;;;29.20;40.80;;;;;;4956158;28;20437;-77
2022/09/14 11:05:21;;;;;;;2.30;1.33;;;29.50;41.00;;;;;;4966108;28;20871;-77
2022/09/14 11:07:58;;;;;;;2.30;1.30;;;29.60;40.40;;;;;;4974783;28;20409;-77
2022/09/14 11:10:30;;;;;;;2.67;1.10;;;29.50;40.20;;;;;;4958762;28;20462;-77
2022/09/14 11:13:45;;;;;;;2.40;1.27;;;29.40;40.30;;;;;;4953375;28;20445;-77
2022/09/14 11:16:35;;;;;;;4.00;1.03;;;29.20;40.20;;;;;;4942106;29;20962;-77
2022/09/14 11:19:06;;;;;;;2.50;1.10;;;29.20;40.30;;;;;;4954926;28;20471;-77
2022/09/14 11:21:39;;;;;;;5.20;1.40;;;29.20;40.00;;;;;;4969388;28;20505;-77
2022/09/14 11:24:14;;;;;;;1.77;1.10;;;29.30;39.70;;;;;;4956587;29;20438;-77
2022/09/14 11:26:43;;;;;;;2.97;1.03;;;29.30;39.60;;;;;;4955459;29;20429;-77
2022/09/14 11:29:16;;;;;;;2.53;1.10;;;29.40;39.90;;;;;;4954533;28;20442;-78
2022/09/14 11:31:46;;;;;;;4.80;1.20;;;29.60;39.80;;;;;;4963196;28;20416;-77
2022/09/14 11:34:36;;;;;;;1.23;1.10;;;29.70;39.20;;;;;;4961296;28;20455;-77
2022/09/14 11:37:06;;;;;;;4.67;1.20;;;29.80;39.10;;;;;;4952407;28;20442;-77
2022/09/14 11:39:37;;;;;;;3.93;1.07;;;29.90;39.20;;;;;;4968444;28;20429;-77
2022/09/14 11:42:07;;;;;;;3.03;1.30;;;30.00;39.00;;;;;;4961678;28;20433;-76
2022/09/14 11:44:37;;;;;;;5.87;1.40;;;29.90;38.80;;;;;;4953183;28;20454;-77
2022/09/14 11:47:07;;;;;;;4.30;1.40;;;29.80;39.10;;;;;;4953001;28;20422;-78
2022/09/14 11:49:41;;;;;;;2.43;0.90;;;29.90;39.20;;;;;;4955237;28;20456;-78
2022/09/14 11:52:18;;;;;;;1.93;1.03;;;29.90;38.60;;;;;;4954621;28;20455;-79
2022/09/14 11:54:47;;;;;;;5.90;1.27;;;29.80;38.90;;;;;;4957812;28;20460;-78
2022/09/14 11:57:17;;;;;;;6.23;1.10;;;29.90;39.40;;;;;;4957500;28;20482;-79
2022/09/14 11:59:50;;;;;;;6.13;1.67;;;30.00;38.50;;;;;;4954906;28;20470;-77
2022/09/14 12:02:47;;;;;;;6.73;1.40;;;29.90;38.30;;;;;;4954155;28;20455;-78
2022/09/14 12:05:40;;;;;;;7.77;1.10;;;29.80;38.20;;;;;;4936181;29;20451;-77
2022/09/14 12:08:32;;;;;;;1.93;1.30;;;29.70;38.40;;;;;;4939537;28;20442;-77
2022/09/14 12:11:20;;;;;;;3.03;1.20;;;29.60;38.40;;;;;;4955387;28;20429;-77
2022/09/14 12:13:47;;;;;;;3.80;1.20;;;29.40;38.30;;;;;;4968360;28;20503;-78
2022/09/14 12:16:16;;;;;;;9.33;1.37;;;29.30;38.50;;;;;;4955836;28;20464;-80
2022/09/14 12:18:52;;;;;;;2.07;1.10;;;29.20;38.20;;;;;;4955934;28;20483;-79
2022/09/14 12:21:22;;;;;;;2.70;1.00;;;29.20;38.40;;;;;;4956279;28;20425;-78
2022/09/14 12:23:52;;;;;;;4.97;1.50;;;29.10;38.50;;;;;;4959060;28;20457;-78
2022/09/14 12:26:39;;;;;;;4.47;1.40;;;29.30;38.70;;;;;;4960585;28;20455;-79
2022/09/14 12:29:28;;;;;;;10.03;1.70;;;29.60;38.80;;;;;;4958269;28;20991;-80
2022/09/14 12:32:25;;;;;;;10.10;2.43;;;29.80;38.20;;;;;;4962229;28;20483;-80
2022/09/14 12:35:30;;;;;;;10.53;1.90;;;29.90;38.20;;;;;;4953136;28;20457;-80
2022/09/14 12:37:58;;;;;;;15.80;2.60;;;29.80;38.30;;;;;;4954579;28;20549;-80
2022/09/14 12:40:44;;;;;;;9.40;1.93;;;29.70;38.60;;;;;;4955269;28;20479;-80
2022/09/14 12:43:54;;;;;;;6.87;2.27;;;29.60;38.80;;;;;;4952270;28;20452;-80
2022/09/14 12:46:41;;;;;;;7.33;1.80;;;29.50;38.70;;;;;;4954920;28;20433;-81
2022/09/14 12:49:36;;;;;;;10.10;1.93;;;29.50;39.10;;;;;;4954618;28;20457;-79
2022/09/14 12:52:15;;;;;;;7.40;1.90;;;29.40;39.00;;;;;;4952078;28;20425;-80
2022/09/14 12:54:49;;;;;;;5.80;1.83;;;29.30;39.30;;;;;;4954629;28;20470;-80
2022/09/14 12:57:25;;;;;;;7.00;1.67;;;29.30;39.30;;;;;;4954258;28;20452;-81
2022/09/14 12:59:57;;;;;;;7.00;1.87;;;29.20;39.30;;;;;;4951258;28;20574;-80
2022/09/14 13:02:42;;;;;;;6.97;1.80;;;29.20;39.40;;;;;;4953034;28;20455;-80
2022/09/14 13:05:12;;;;;;;3.80;1.30;;;29.20;39.60;;;;;;4953709;28;21068;-82
2022/09/14 13:07:40;;;;;;;7.33;1.63;;;29.30;39.70;;;;;;4954849;28;20478;-80
2022/09/14 13:10:17;;;;;;;3.57;1.70;;;29.50;39.60;;;;;;4952658;29;20470;-80
2022/09/14 13:12:46;;;;;;;4.10;1.50;;;29.50;39.50;;;;;;4954577;28;20514;-80
2022/09/14 13:15:19;;;;;;;6.23;1.70;;;29.60;39.60;;;;;;4951948;28;20883;-80
2022/09/14 13:18:00;;;;;;;9.13;1.77;;;29.70;39.40;;;;;;4957311;28;20449;-80
2022/09/14 13:20:29;;;;;;;14.50;2.03;;;29.60;39.10;;;;;;4953698;28;20446;-80
2022/09/14 13:22:57;;;;;;;5.30;1.57;;;29.50;39.30;;;;;;4956688;28;20437;-80
2022/09/14 13:25:27;;;;;;;5.13;1.80;;;29.50;39.40;;;;;;4956456;28;20455;-80
2022/09/14 13:27:55;;;;;;;4.13;1.50;;;29.50;39.60;;;;;;4955213;28;20451;-79
2022/09/14 13:30:26;;;;;;;4.53;1.27;;;29.40;39.60;;;;;;4952974;28;20471;-78
2022/09/14 13:32:55;;;;;;;2.43;1.30;;;29.40;39.70;;;;;;4951299;28;20481;-79
2022/09/14 13:35:30;;;;;;;7.53;1.50;;;29.30;39.70;;;;;;4953776;28;20487;-78
2022/09/14 13:37:59;;;;;;;2.60;1.57;;;29.30;39.90;;;;;;4952541;29;20479;-78
2022/09/14 13:40:29;;;;;;;3.67;1.80;;;29.30;40.00;;;;;;4951705;28;20464;-79
2022/09/14 13:42:58;;;;;;;5.27;1.80;;;29.30;40.00;;;;;;4960011;29;20829;-80
2022/09/14 13:45:28;;;;;;;3.20;1.37;;;29.30;40.00;;;;;;4962708;28;20414;-80
2022/09/14 13:47:56;;;;;;;2.70;1.30;;;29.30;40.00;;;;;;4960244;28;20445;-81
2022/09/14 13:50:25;;;;;;;5.23;1.90;;;29.30;40.00;;;;;;4964444;28;20466;-81
2022/09/14 13:52:54;;;;;;;5.57;1.60;;;29.30;40.00;;;;;;4963307;28;20458;-80
2022/09/14 13:55:42;;;;;;;3.20;1.50;;;29.30;40.00;;;;;;4964898;28;20455;-81
2022/09/14 13:58:22;;;;;;;5.07;1.40;;;29.40;40.20;;;;;;4960826;28;20529;-80
2022/09/14 14:00:57;;;;;;;3.13;1.37;;;29.40;40.10;;;;;;4958668;28;20504;-81
2022/09/14 14:03:33;;;;;;;2.30;1.13;;;29.50;40.10;;;;;;4959993;29;20413;-81
2022/09/14 14:06:05;;;;;;;2.00;1.00;;;29.50;39.90;;;;;;4958599;29;20456;-82
2022/09/14 14:08:34;;;;;;;3.40;1.10;;;29.60;39.80;;;;;;4958154;28;20450;-80
2022/09/14 14:11:03;;;;;;;4.93;1.30;;;29.80;39.70;;;;;;4961658;28;20421;-82
2022/09/14 14:13:32;;;;;;;4.03;1.20;;;29.80;39.30;;;;;;4958696;28;20433;-82
2022/09/14 14:16:15;;;;;;;5.07;1.30;;;29.70;39.40;;;;;;4959731;28;20458;-79
2022/09/14 14:18:49;;;;;;;10.67;1.40;;;29.70;39.60;;;;;;4955503;28;20468;-80
2022/09/14 14:21:26;;;;;;;3.07;1.20;;;29.70;39.40;;;;;;4964660;28;20438;-82
2022/09/14 14:24:10;;;;;;;3.90;1.10;;;29.70;39.50;;;;;;4969181;28;20465;-83
2022/09/14 14:26:40;;;;;;;8.47;1.37;;;29.80;39.80;;;;;;4971460;28;20429;-83
2022/09/14 14:29:09;;;;;;;2.73;1.17;;;29.80;39.70;;;;;;4978746;28;20512;-83
2022/09/14 14:31:38;;;;;;;1.63;1.30;;;29.80;39.60;;;;;;4972282;28;20957;-83
2022/09/14 14:34:11;;;;;;;3.40;1.17;;;29.90;39.70;;;;;;4970604;28;20425;-82